地図

経路データ

SID SEASON NUMBER BASIN SUBBASIN NAME ISO_TIME NATURE LAT LON WMO_WIND WMO_PRES WMO_AGENCY TRACK_TYPE DIST2LAND LANDFALL IFLAG USA_AGENCY USA_ATCF_ID USA_LAT USA_LON USA_RECORD USA_STATUS USA_WIND USA_PRES USA_SSHS USA_R34_NE USA_R34_SE USA_R34_SW USA_R34_NW USA_R50_NE USA_R50_SE USA_R50_SW USA_R50_NW USA_R64_NE USA_R64_SE USA_R64_SW USA_R64_NW USA_POCI USA_ROCI USA_RMW USA_EYE TOKYO_LAT TOKYO_LON TOKYO_GRADE TOKYO_WIND TOKYO_PRES TOKYO_R50_DIR TOKYO_R50_LONG TOKYO_R50_SHORT TOKYO_R30_DIR TOKYO_R30_LONG TOKYO_R30_SHORT TOKYO_LAND CMA_LAT CMA_LON CMA_CAT CMA_WIND CMA_PRES HKO_LAT HKO_LON HKO_CAT HKO_WIND HKO_PRES NEWDELHI_LAT NEWDELHI_LON NEWDELHI_GRADE NEWDELHI_WIND NEWDELHI_PRES NEWDELHI_CI NEWDELHI_DP NEWDELHI_POCI REUNION_LAT REUNION_LON REUNION_TYPE REUNION_WIND REUNION_PRES REUNION_TNUM REUNION_CI REUNION_RMW REUNION_R34_NE REUNION_R34_SE REUNION_R34_SW REUNION_R34_NW REUNION_R50_NE REUNION_R50_SE REUNION_R50_SW REUNION_R50_NW REUNION_R64_NE REUNION_R64_SE REUNION_R64_SW REUNION_R64_NW BOM_LAT BOM_LON BOM_TYPE BOM_WIND BOM_PRES BOM_TNUM BOM_CI BOM_RMW BOM_R34_NE BOM_R34_SE BOM_R34_SW BOM_R34_NW BOM_R50_NE BOM_R50_SE BOM_R50_SW BOM_R50_NW BOM_R64_NE BOM_R64_SE BOM_R64_SW BOM_R64_NW BOM_ROCI BOM_POCI BOM_EYE BOM_POS_METHOD BOM_PRES_METHOD NADI_LAT NADI_LON NADI_CAT NADI_WIND NADI_PRES WELLINGTON_LAT WELLINGTON_LON WELLINGTON_WIND WELLINGTON_PRES DS824_LAT DS824_LON DS824_STAGE DS824_WIND DS824_PRES TD9636_LAT TD9636_LON TD9636_STAGE TD9636_WIND TD9636_PRES TD9635_LAT TD9635_LON TD9635_WIND TD9635_PRES TD9635_ROCI NEUMANN_LAT NEUMANN_LON NEUMANN_CLASS NEUMANN_WIND NEUMANN_PRES MLC_LAT MLC_LON MLC_CLASS MLC_WIND MLC_PRES USA_GUST BOM_GUST BOM_GUST_PER REUNION_GUST REUNION_GUST_PER USA_SEAHGT USA_SEARAD_NE USA_SEARAD_SE USA_SEARAD_SW USA_SEARAD_NW STORM_SPEED STORM_DIR
1943276N13141 1943 69 WP MM NOT_NAMED 1943-10-02 12:00:00 NR 13.5000 140.500 main 1622 1622 __________O___ -1 13.5000 140.500 4 0 0
1943276N13141 1943 69 WP MM NOT_NAMED 1943-10-02 15:00:00 NR 13.5203 140.487 main 1622 1622 __________P___ -1 13.5203 140.487 4 1 320
1943276N13141 1943 69 WP MM NOT_NAMED 1943-10-02 18:00:00 NR 13.5524 140.460 main 1624 1613 __________P___ -1 13.5524 140.460 4 1 318
1943276N13141 1943 69 WP MM NOT_NAMED 1943-10-02 21:00:00 NR 13.6084 140.402 main 1613 1604 __________P___ -1 13.6084 140.402 4 2 314
1943276N13141 1943 69 WP MM NOT_NAMED 1943-10-03 00:00:00 NR 13.7000 140.300 main 1604 1593 __________O___ -1 13.7000 140.300 4 3 312
1943276N13141 1943 69 WP MM NOT_NAMED 1943-10-03 03:00:00 NR 13.8351 140.143 main 1584 1576 __________P___ -1 13.8351 140.143 4 5 312
1943276N13141 1943 69 WP MM NOT_NAMED 1943-10-03 06:00:00 NR 14.0051 139.945 main 1567 1550 __________P___ -1 14.0051 139.945 4 5 312
1943276N13141 1943 69 WP MM NOT_NAMED 1943-10-03 09:00:00 NR 14.1976 139.724 main 1550 1534 __________P___ -1 14.1976 139.724 4 6 312
1943276N13141 1943 69 WP MM NOT_NAMED 1943-10-03 12:00:00 NR 14.4000 139.500 main 1534 1515 __________O___ -1 14.4000 139.500 4 5 314
1943276N13141 1943 69 WP MM NOT_NAMED 1943-10-03 15:00:00 NR 14.5723 139.320 main 1517 1497 __________P___ -1 14.5723 139.320 4 5 315
1943276N13141 1943 69 WP MM NOT_NAMED 1943-10-03 18:00:00 NR 14.7547 139.137 main 1499 1480 __________P___ -1 14.7547 139.137 4 5 316
1943276N13141 1943 69 WP MM NOT_NAMED 1943-10-03 21:00:00 NR 14.9598 138.935 main 1482 1465 __________P___ -1 14.9598 138.935 4 6 316
1943276N13141 1943 69 WP MM NOT_NAMED 1943-10-04 00:00:00 NR 15.2000 138.700 main 1465 1449 __________O___ -1 15.2000 138.700 4 7 316
1943276N13141 1943 69 WP MM NOT_NAMED 1943-10-04 03:00:00 NR 15.4645 138.435 main 1441 1415 __________P___ -1 15.4645 138.435 4 8 316
1943276N13141 1943 69 WP MM NOT_NAMED 1943-10-04 06:00:00 NR 15.7672 138.131 main 1418 1396 __________P___ -1 15.7672 138.131 4 9 316
1943276N13141 1943 69 WP MM NOT_NAMED 1943-10-04 09:00:00 NR 16.1113 137.788 main 1396 1369 __________P___ -1 16.1113 137.788 4 10 316
1943276N13141 1943 69 WP MM NOT_NAMED 1943-10-04 12:00:00 NR 16.5000 137.400 main 1369 1344 __________O___ -1 16.5000 137.400 4 11 316
1943276N13141 1943 69 WP MM NOT_NAMED 1943-10-04 15:00:00 NR 16.9279 136.972 main 1344 1318 __________P___ -1 16.9279 136.972 4 12 316
1943276N13141 1943 69 WP MM NOT_NAMED 1943-10-04 18:00:00 NR 17.3976 136.502 main 1318 1295 __________P___ -1 17.3976 136.502 4 13 316
1943276N13141 1943 69 WP MM NOT_NAMED 1943-10-04 21:00:00 NR 17.8934 136.006 main 1295 1277 __________P___ -1 17.8934 136.006 4 14 316
1943276N13141 1943 69 WP MM NOT_NAMED 1943-10-05 00:00:00 NR 18.4000 135.500 main 1277 1261 __________O___ -1 18.4000 135.500 4 14 316
1943276N13141 1943 69 WP MM NOT_NAMED 1943-10-05 03:00:00 NR 18.8842 135.014 main 1261 1234 __________P___ -1 18.8842 135.014 4 14 317
1943276N13141 1943 69 WP MM NOT_NAMED 1943-10-05 06:00:00 NR 19.3769 134.521 main 1239 1221 __________P___ -1 19.3769 134.521 4 14 317
1943276N13141 1943 69 WP MM NOT_NAMED 1943-10-05 09:00:00 NR 19.8810 134.017 main 1221 1195 __________P___ -1 19.8810 134.017 4 14 317
1943276N13141 1943 69 WP MM NOT_NAMED 1943-10-05 12:00:00 NR 20.4000 133.500 main 1195 1140 __________O___ -1 20.4000 133.500 4 15 318
1943276N13141 1943 69 WP MM NOT_NAMED 1943-10-05 15:00:00 NR 20.9843 132.953 main 1140 1074 __________P___ -1 20.9843 132.953 4 16 319
1943276N13141 1943 69 WP MM NOT_NAMED 1943-10-05 18:00:00 NR 21.5749 132.394 main 1063 1001 __________P___ -1 21.5749 132.394 4 15 318
1943276N13141 1943 69 WP MM NOT_NAMED 1943-10-05 21:00:00 NR 22.1281 131.838 main 1000 940 __________P___ -1 22.1281 131.838 4 14 315
1943276N13141 1943 69 WP MM NOT_NAMED 1943-10-06 00:00:00 NR 22.6000 131.300 main 940 893 __________O___ -1 22.6000 131.300 4 13 312
1943276N13141 1943 69 WP MM NOT_NAMED 1943-10-06 03:00:00 NR 22.9966 130.791 main 893 860 __________P___ -1 22.9966 130.791 4 12 307
1943276N13141 1943 69 WP MM NOT_NAMED 1943-10-06 06:00:00 NR 23.3017 130.305 main 860 817 __________P___ -1 23.3017 130.305 4 10 300
1943276N13141 1943 69 WP MM NOT_NAMED 1943-10-06 09:00:00 NR 23.5061 129.841 main 807 765 __________P___ -1 23.5061 129.841 4 9 290
1943276N13141 1943 69 WP MM NOT_NAMED 1943-10-06 12:00:00 NR 23.6000 129.400 main 765 716 __________O___ -1 23.6000 129.400 4 9 276
1943276N13141 1943 69 WP MM NOT_NAMED 1943-10-06 15:00:00 NR 23.5953 128.862 main 716 669 __________P___ -1 23.5953 128.862 4 10 263
1943276N13141 1943 69 WP MM NOT_NAMED 1943-10-06 18:00:00 NR 23.4854 128.364 main 669 634 __________P___ -1 23.4854 128.364 4 9 250
1943276N13141 1943 69 WP MM NOT_NAMED 1943-10-06 21:00:00 NR 23.3076 127.984 main 634 616 __________P___ -1 23.3076 127.984 4 6 233
1943276N13141 1943 69 WP MM NOT_NAMED 1943-10-07 00:00:00 NR 23.1000 127.800 main 619 619 __________O___ -1 23.1000 127.800 4 5 188
1943276N13141 1943 69 WP MM NOT_NAMED 1943-10-07 03:00:00 NR 22.8524 127.905 main 636 636 __________P___ -1 22.8524 127.905 4 6 144
1943276N13141 1943 69 WP MM NOT_NAMED 1943-10-07 06:00:00 NR 22.5953 128.201 main 675 675 __________P___ -1 22.5953 128.201 4 8 126
1943276N13141 1943 69 WP MM NOT_NAMED 1943-10-07 09:00:00 NR 22.3904 128.596 main 722 722 __________P___ -1 22.3904 128.596 4 8 112
1943276N13141 1943 69 WP MM NOT_NAMED 1943-10-07 12:00:00 NR 22.3000 129.000 main 764 764 __________O___ -1 22.3000 129.000 4 7 91
1943276N13141 1943 69 WP MM NOT_NAMED 1943-10-07 15:00:00 NR 22.3787 129.349 main 790 790 __________P___ -1 22.3787 129.349 4 7 66
1943276N13141 1943 69 WP MM NOT_NAMED 1943-10-07 18:00:00 NR 22.5778 129.682 main 822 822 __________P___ -1 22.5778 129.682 4 7 49
1943276N13141 1943 69 WP MM NOT_NAMED 1943-10-07 21:00:00 NR 22.8630 129.949 main 833 833 __________P___ -1 22.8630 129.949 4 7 32
1943276N13141 1943 69 WP MM NOT_NAMED 1943-10-08 00:00:00 NR 23.2000 130.100 main 845 827 __________O___ -1 23.2000 130.100 4 7 6
1943276N13141 1943 69 WP MM NOT_NAMED 1943-10-08 03:00:00 NR 23.5238 130.026 main 827 796 __________P___ -1 23.5238 130.026 4 7 341
1943276N13141 1943 69 WP MM NOT_NAMED 1943-10-08 06:00:00 NR 23.8902 129.841 main 797 755 __________P___ -1 23.8902 129.841 4 8 335
1943276N13141 1943 69 WP MM NOT_NAMED 1943-10-08 09:00:00 NR 24.2864 129.635 main 755 713 __________P___ -1 24.2864 129.635 4 9 339
1943276N13141 1943 69 WP MM NOT_NAMED 1943-10-08 12:00:00 NR 24.7000 129.500 main 713 669 __________O___ -1 24.7000 129.500 4 8 352
1943276N13141 1943 69 WP MM NOT_NAMED 1943-10-08 15:00:00 NR 25.1206 129.505 main 669 623 __________P___ -1 25.1206 129.505 4 9 8
1943276N13141 1943 69 WP MM NOT_NAMED 1943-10-08 18:00:00 NR 25.5452 129.634 main 623 576 __________P___ -1 25.5452 129.634 4 9 20
1943276N13141 1943 69 WP MM NOT_NAMED 1943-10-08 21:00:00 NR 25.9722 129.845 main 565 516 __________P___ -1 25.9722 129.845 4 10 26
1943276N13141 1943 69 WP MM NOT_NAMED 1943-10-09 00:00:00 NR 26.4000 130.100 main 516 __________O___ -1 26.4000 130.100 4 10 28

デジタル台風データ・検索

IBTrACS Databaseについて

本データベースは、米国NOAAが公開する1842年以降の世界の熱帯低気圧のベストトラックデータアーカイブInternational Best Track Archive for Climate Stewardship (IBTrACS)を、ウェブで閲覧しやすい形式に変換したものです。

最終更新日:2021-10-08